Time,TemperatureF,DewpointF,PressureIn,WindDirection,WindDirectionDegrees,WindSpeedMPH,WindSpeedGustMPH,Humidity,HourlyPrecipIn,Conditions,Clouds,dailyrainin,SoftwareType,DateUTC
2014-10-21 00:05:00,59.9,46.9,30.00,East,83,0.0,0.0,62,0.00,,---,0.00,VWS V14.01,2014-10-20 21:05:00,
2014-10-21 00:10:00,59.9,46.9,30.00,East,83,0.0,0.0,62,0.00,,---,0.00,VWS V14.01,2014-10-20 21:10:00,
2014-10-21 00:16:00,59.7,46.7,30.00,East,83,0.0,0.0,62,0.00,,---,0.00,VWS V14.01,2014-10-20 21:16:00,
2014-10-21 00:21:00,59.7,46.7,30.00,East,83,0.0,0.0,62,0.00,,---,0.00,VWS V14.01,2014-10-20 21:21:00,
2014-10-21 00:26:00,59.7,46.7,30.00,East,83,0.0,0.0,62,0.00,,---,0.00,VWS V14.01,2014-10-20 21:26:00,
2014-10-21 00:32:00,59.5,46.5,30.00,East,84,0.0,0.0,62,0.00,,---,0.00,VWS V14.01,2014-10-20 21:32:00,
2014-10-21 00:37:00,59.7,46.7,30.00,East,84,0.0,0.0,62,0.00,,---,0.00,VWS V14.01,2014-10-20 21:37:00,
2014-10-21 00:43:00,59.7,46.7,30.00,East,84,0.0,0.0,62,0.00,,---,0.00,VWS V14.01,2014-10-20 21:43:00,
2014-10-21 00:48:00,59.7,46.7,30.00,East,83,0.0,0.0,62,0.00,,---,0.00,VWS V14.01,2014-10-20 21:48:00,
2014-10-21 00:54:00,59.9,46.9,30.00,East,84,0.0,0.0,62,0.00,,---,0.00,VWS V14.01,2014-10-20 21:54:00,
2014-10-21 01:00:00,59.9,47.3,30.00,East,83,0.0,0.0,63,0.00,,---,0.00,VWS V14.01,2014-10-20 22:00:00,
2014-10-21 01:05:00,60.1,47.5,30.00,East,83,0.0,0.0,63,0.00,,---,0.00,VWS V14.01,2014-10-20 22:05:00,
2014-10-21 01:11:00,60.3,47.6,30.00,East,84,0.0,0.0,63,0.00,,---,0.00,VWS V14.01,2014-10-20 22:11:00,
2014-10-21 01:16:00,60.3,47.2,30.00,East,84,0.0,0.0,62,0.00,,---,0.00,VWS V14.01,2014-10-20 22:16:00,
2014-10-21 01:22:00,60.1,47.0,30.00,East,84,0.0,0.0,62,0.00,,---,0.00,VWS V14.01,2014-10-20 22:22:00,
2014-10-21 01:28:00,59.7,46.7,30.00,East,83,0.0,0.0,62,0.00,,---,0.00,VWS V14.01,2014-10-20 22:28:00,
2014-10-21 01:33:00,59.5,47.0,30.00,East,84,0.0,0.0,63,0.00,,---,0.00,VWS V14.01,2014-10-20 22:33:00,
2014-10-21 01:39:00,59.7,47.1,30.00,East,84,0.0,0.0,63,0.00,,---,0.00,VWS V14.01,2014-10-20 22:39:00,
2014-10-21 01:44:00,59.7,47.1,30.00,East,84,0.0,0.0,63,0.00,,---,0.00,VWS V14.01,2014-10-20 22:44:00,
2014-10-21 01:50:00,59.7,47.1,30.00,East,83,0.0,0.0,63,0.00,,---,0.00,VWS V14.01,2014-10-20 22:50:00,
2014-10-21 01:55:00,59.7,47.1,29.97,East,83,0.0,0.0,63,0.00,,---,0.00,VWS V14.01,2014-10-20 22:55:00,
2014-10-21 02:01:00,59.5,47.0,29.97,East,83,0.0,0.0,63,0.00,,---,0.00,VWS V14.01,2014-10-20 23:01:00,
2014-10-21 02:06:00,59.4,46.8,29.97,East,84,0.0,0.0,63,0.00,,---,0.00,VWS V14.01,2014-10-20 23:06:00,
2014-10-21 02:12:00,59.2,46.6,29.97,East,84,0.0,0.0,63,0.00,,---,0.00,VWS V14.01,2014-10-20 23:12:00,
2014-10-21 02:17:00,59.2,46.6,29.97,East,84,0.0,0.0,63,0.00,,---,0.00,VWS V14.01,2014-10-20 23:17:00,
2014-10-21 02:22:00,59.0,46.8,29.97,NNE,21,0.0,0.0,64,0.00,,---,0.00,VWS V14.01,2014-10-20 23:22:00,
2014-10-21 02:28:00,59.0,47.7,29.97,NNE,21,0.0,0.0,66,0.00,,---,0.00,VWS V14.01,2014-10-20 23:28:00,
2014-10-21 02:33:00,59.2,48.6,29.97,NNE,21,0.0,0.0,68,0.00,,---,0.00,VWS V14.01,2014-10-20 23:33:00,
2014-10-21 02:38:00,59.0,49.2,29.97,NNE,21,0.0,0.0,70,0.00,,---,0.00,VWS V14.01,2014-10-20 23:38:00,
2014-10-21 02:44:00,58.8,49.5,29.97,NNE,22,0.0,0.0,71,0.00,,---,0.00,VWS V14.01,2014-10-20 23:44:00,
2014-10-21 02:49:00,58.8,49.5,29.97,NNE,21,0.0,0.0,71,0.00,,---,0.00,VWS V14.01,2014-10-20 23:49:00,
2014-10-21 02:54:00,58.8,49.1,29.97,NNE,22,0.0,0.0,70,0.00,,---,0.00,VWS V14.01,2014-10-20 23:54:00,
2014-10-21 02:59:00,58.6,48.9,29.97,NNE,21,0.0,0.0,70,0.00,,---,0.00,VWS V14.01,2014-10-20 23:59:00,
2014-10-21 03:05:00,58.5,48.7,29.97,NNE,22,0.0,0.0,70,0.00,,---,0.00,VWS V14.01,2014-10-21 00:05:00,
2014-10-21 03:11:00,58.5,48.7,29.97,NNE,21,0.0,0.0,70,0.00,,---,0.00,VWS V14.01,2014-10-21 00:11:00,
2014-10-21 03:17:00,58.1,48.4,29.97,NNE,21,0.0,0.0,70,0.00,,---,0.00,VWS V14.01,2014-10-21 00:17:00,
2014-10-21 03:22:00,57.9,49.0,29.97,NNE,21,0.0,0.0,72,0.00,,---,0.00,VWS V14.01,2014-10-21 00:22:00,
2014-10-21 03:28:00,57.7,48.8,29.97,NNE,21,0.0,0.0,72,0.00,,---,0.00,VWS V14.01,2014-10-21 00:28:00,
2014-10-21 03:34:00,57.7,49.5,29.97,NNE,22,0.0,0.0,74,0.00,,---,0.00,VWS V14.01,2014-10-21 00:34:00,
2014-10-21 03:39:00,57.7,50.6,29.97,NNE,21,0.0,0.0,77,0.00,,---,0.00,VWS V14.01,2014-10-21 00:39:00,
2014-10-21 03:44:00,57.7,50.6,29.97,NNE,22,0.0,0.0,77,0.00,,---,0.00,VWS V14.01,2014-10-21 00:44:00,
2014-10-21 03:49:00,57.7,50.9,29.97,NNE,22,0.0,0.0,78,0.00,,---,0.00,VWS V14.01,2014-10-21 00:49:00,
2014-10-21 03:55:00,57.7,50.9,29.97,NNE,21,0.0,0.0,78,0.00,,---,0.00,VWS V14.01,2014-10-21 00:55:00,
2014-10-21 04:00:00,57.7,50.6,29.97,NNE,21,0.0,0.0,77,0.00,,---,0.00,VWS V14.01,2014-10-21 01:00:00,
2014-10-21 04:05:00,57.4,50.2,29.97,NNE,21,0.0,0.0,77,0.00,,---,0.00,VWS V14.01,2014-10-21 01:05:00,
2014-10-21 04:10:00,57.2,50.1,29.97,NNE,21,0.0,0.0,77,0.00,,---,0.00,VWS V14.01,2014-10-21 01:10:00,
2014-10-21 04:16:00,57.0,49.9,29.97,NNE,21,0.0,0.0,77,0.00,,---,0.00,VWS V14.01,2014-10-21 01:16:00,
2014-10-21 04:21:00,56.8,50.4,29.97,NNE,21,0.0,0.0,79,0.00,,---,0.00,VWS V14.01,2014-10-21 01:21:00,
2014-10-21 04:27:00,57.0,51.3,29.97,NNE,21,0.0,0.0,81,0.00,,---,0.00,VWS V14.01,2014-10-21 01:27:00,
2014-10-21 04:32:00,57.0,50.9,29.97,NNE,21,0.0,0.0,80,0.00,,---,0.00,VWS V14.01,2014-10-21 01:32:00,
2014-10-21 04:37:00,56.7,50.6,29.97,NNE,22,0.0,0.0,80,0.00,,---,0.00,VWS V14.01,2014-10-21 01:37:00,
2014-10-21 04:42:00,56.7,50.6,29.97,NNE,21,0.0,0.0,80,0.00,,---,0.00,VWS V14.01,2014-10-21 01:42:00,
2014-10-21 04:48:00,56.8,51.4,29.97,NNE,22,0.0,0.0,82,0.00,,---,0.00,VWS V14.01,2014-10-21 01:48:00,
2014-10-21 04:53:00,56.8,51.1,29.97,NNE,21,0.0,0.0,81,0.00,,---,0.00,VWS V14.01,2014-10-21 01:53:00,
2014-10-21 04:58:00,56.8,51.1,29.97,NNE,22,0.0,0.0,81,0.00,,---,0.00,VWS V14.01,2014-10-21 01:58:00,
2014-10-21 05:03:00,56.8,51.1,29.97,NNE,22,0.0,0.0,81,0.00,,---,0.00,VWS V14.01,2014-10-21 02:03:00,
2014-10-21 05:08:00,56.3,50.5,29.97,NNE,21,0.0,0.0,81,0.00,,---,0.00,VWS V14.01,2014-10-21 02:08:00,
2014-10-21 05:14:00,55.9,49.9,29.97,NNE,21,0.0,0.0,80,0.00,,---,0.00,VWS V14.01,2014-10-21 02:14:00,
2014-10-21 05:20:00,56.3,49.9,29.97,NNE,21,0.0,0.0,79,0.00,,---,0.00,VWS V14.01,2014-10-21 02:20:00,
2014-10-21 05:25:00,56.7,50.2,29.97,NNE,21,0.0,0.0,79,0.00,,---,0.00,VWS V14.01,2014-10-21 02:25:00,
2014-10-21 05:30:00,56.8,50.4,29.97,NNE,21,0.0,0.0,79,0.00,,---,0.00,VWS V14.01,2014-10-21 02:30:00,
2014-10-21 05:37:00,56.7,50.2,29.97,NNE,21,0.0,0.0,79,0.00,,---,0.00,VWS V14.01,2014-10-21 02:37:00,
2014-10-21 05:42:00,55.9,49.2,29.97,NNE,21,0.0,0.0,78,0.00,,---,0.00,VWS V14.01,2014-10-21 02:42:00,
2014-10-21 05:48:00,55.9,49.5,29.97,NNE,21,0.0,0.0,79,0.00,,---,0.00,VWS V14.01,2014-10-21 02:48:00,
2014-10-21 05:53:00,55.9,49.5,29.94,NNE,22,0.0,0.0,79,0.00,,---,0.00,VWS V14.01,2014-10-21 02:53:00,
2014-10-21 05:59:00,56.1,50.0,29.94,NNE,21,0.0,0.0,80,0.00,,---,0.00,VWS V14.01,2014-10-21 02:59:00,
2014-10-21 06:04:00,56.5,50.7,29.94,NNE,22,0.0,0.0,81,0.00,,---,0.00,VWS V14.01,2014-10-21 03:04:00,
2014-10-21 06:10:00,56.5,50.4,29.94,NNE,21,0.0,0.0,80,0.00,,---,0.00,VWS V14.01,2014-10-21 03:10:00,
2014-10-21 06:16:00,56.5,50.4,29.94,NNE,22,0.0,0.0,80,0.00,,---,0.00,VWS V14.01,2014-10-21 03:16:00,
2014-10-21 06:21:00,56.5,50.4,29.94,NNE,21,0.0,0.0,80,0.00,,---,0.00,VWS V14.01,2014-10-21 03:21:00,
2014-10-21 06:26:00,56.3,50.2,29.94,NNE,21,0.0,0.0,80,0.00,,---,0.00,VWS V14.01,2014-10-21 03:26:00,
2014-10-21 06:33:00,56.3,50.2,29.94,NNE,21,0.0,0.0,80,0.00,,---,0.00,VWS V14.01,2014-10-21 03:33:00,
2014-10-21 06:38:00,56.3,50.2,29.94,NNE,21,0.0,0.0,80,0.00,,---,0.00,VWS V14.01,2014-10-21 03:38:00,
2014-10-21 06:43:00,56.3,50.2,29.94,NNE,22,0.0,0.0,80,0.00,,---,0.00,VWS V14.01,2014-10-21 03:43:00,
2014-10-21 06:48:00,56.1,49.7,29.94,NNE,22,0.0,0.0,79,0.00,,---,0.00,VWS V14.01,2014-10-21 03:48:00,
2014-10-21 06:54:00,56.1,49.7,29.94,NNE,21,0.0,0.0,79,0.00,,---,0.00,VWS V14.01,2014-10-21 03:54:00,
2014-10-21 07:00:00,55.9,49.5,29.94,NNE,22,0.0,0.0,79,0.00,,---,0.00,VWS V14.01,2014-10-21 04:00:00,
2014-10-21 07:05:00,55.9,49.5,29.94,NNE,22,0.0,0.0,79,0.00,,---,0.00,VWS V14.01,2014-10-21 04:05:00,
2014-10-21 07:11:00,55.8,49.4,29.94,NNE,21,0.0,0.0,79,0.00,,---,0.00,VWS V14.01,2014-10-21 04:11:00,
2014-10-21 07:16:00,55.6,49.2,29.94,NNE,21,0.0,0.0,79,0.00,,---,0.00,VWS V14.01,2014-10-21 04:16:00,
2014-10-21 07:22:00,55.6,49.2,29.94,NNE,21,0.0,0.0,79,0.00,,---,0.00,VWS V14.01,2014-10-21 04:22:00,
2014-10-21 07:27:00,55.6,49.2,29.94,NNE,21,0.0,0.0,79,0.00,,---,0.00,VWS V14.01,2014-10-21 04:27:00,
2014-10-21 07:32:00,55.6,49.2,29.94,NNE,21,0.0,0.0,79,0.00,,---,0.00,VWS V14.01,2014-10-21 04:32:00,
2014-10-21 07:37:00,55.8,49.4,29.94,NNE,21,0.0,0.0,79,0.00,,---,0.00,VWS V14.01,2014-10-21 04:37:00,
2014-10-21 07:42:00,55.9,49.2,29.94,NNE,21,0.0,0.0,78,0.00,,---,0.00,VWS V14.01,2014-10-21 04:42:00,
2014-10-21 07:47:00,56.1,49.4,29.94,NNE,21,0.0,0.0,78,0.00,,---,0.00,VWS V14.01,2014-10-21 04:47:00,
2014-10-21 07:53:00,56.1,49.4,29.94,NNE,22,0.0,0.0,78,0.00,,---,0.00,VWS V14.01,2014-10-21 04:53:00,
2014-10-21 07:58:00,56.1,49.4,29.94,NNE,21,0.0,0.0,78,0.00,,---,0.00,VWS V14.01,2014-10-21 04:58:00,
2014-10-21 08:04:00,55.9,49.2,29.94,NNE,22,0.0,0.0,78,0.00,,---,0.00,VWS V14.01,2014-10-21 05:04:00,
2014-10-21 08:09:00,55.9,49.2,29.91,NNE,21,0.0,0.0,78,0.00,,---,0.00,VWS V14.01,2014-10-21 05:09:00,
2014-10-21 08:15:00,55.9,48.8,29.91,NNE,22,0.0,0.0,77,0.00,,---,0.00,VWS V14.01,2014-10-21 05:15:00,
2014-10-21 08:21:00,56.1,49.0,29.91,NNE,22,0.0,0.0,77,0.00,,---,0.00,VWS V14.01,2014-10-21 05:21:00,
2014-10-21 08:26:00,56.3,49.2,29.94,NNE,21,0.0,0.0,77,0.00,,---,0.00,VWS V14.01,2014-10-21 05:26:00,
2014-10-21 08:32:00,56.8,49.7,29.94,NNE,22,0.0,0.0,77,0.00,,---,0.00,VWS V14.01,2014-10-21 05:32:00,
2014-10-21 08:37:00,57.6,50.4,29.94,NNE,22,0.0,0.0,77,0.00,,---,0.00,VWS V14.01,2014-10-21 05:37:00,
2014-10-21 08:43:00,58.3,51.1,29.94,NNE,21,0.0,0.0,77,0.00,,---,0.00,VWS V14.01,2014-10-21 05:43:00,
2014-10-21 08:48:00,59.2,51.3,29.94,NNE,22,0.0,0.0,75,0.00,,---,0.00,VWS V14.01,2014-10-21 05:48:00,
2014-10-21 08:54:00,59.7,51.4,29.94,NNE,21,0.0,0.0,74,0.00,,---,0.00,VWS V14.01,2014-10-21 05:54:00,
2014-10-21 09:00:00,60.3,51.2,29.94,NNE,21,0.0,0.0,72,0.00,,---,0.00,VWS V14.01,2014-10-21 06:00:00,
2014-10-21 09:05:00,60.8,51.7,29.94,NNE,21,0.0,0.0,72,0.00,,---,0.00,VWS V14.01,2014-10-21 06:05:00,
2014-10-21 09:11:00,61.0,51.5,29.94,NNE,21,0.0,0.0,71,0.00,,---,0.00,VWS V14.01,2014-10-21 06:11:00,
2014-10-21 09:16:00,61.3,51.9,29.94,NNE,21,0.0,0.0,71,0.00,,---,0.00,VWS V14.01,2014-10-21 06:16:00,
2014-10-21 09:22:00,61.9,52.4,29.94,NNE,22,0.0,0.0,71,0.00,,---,0.00,VWS V14.01,2014-10-21 06:22:00,
2014-10-21 09:27:00,62.2,52.3,29.94,NNE,21,0.0,0.0,70,0.00,,---,0.00,VWS V14.01,2014-10-21 06:27:00,
2014-10-21 09:33:00,62.8,52.9,29.94,NNE,22,0.0,0.0,70,0.00,,---,0.00,VWS V14.01,2014-10-21 06:33:00,
2014-10-21 09:38:00,63.5,53.5,29.94,NNE,21,0.0,0.0,70,0.00,,---,0.00,VWS V14.01,2014-10-21 06:38:00,
2014-10-21 09:43:00,64.0,53.3,29.94,NNE,21,0.0,0.0,68,0.00,,---,0.00,VWS V14.01,2014-10-21 06:43:00,
2014-10-21 09:49:00,64.8,52.7,29.94,NNE,21,0.0,0.0,65,0.00,,---,0.00,VWS V14.01,2014-10-21 06:49:00,
2014-10-21 09:54:00,64.9,52.5,29.94,NNE,21,0.0,0.0,64,0.00,,---,0.00,VWS V14.01,2014-10-21 06:54:00,
2014-10-21 10:00:00,65.5,53.0,29.94,NNE,22,0.0,0.0,64,0.00,,---,0.00,VWS V14.01,2014-10-21 07:00:00,
2014-10-21 10:06:00,65.8,52.5,29.94,NW,314,0.0,0.0,62,0.00,,---,0.00,VWS V14.01,2014-10-21 07:06:00,
2014-10-21 10:12:00,65.8,51.6,29.94,WSW,249,0.0,0.0,60,0.00,,---,0.00,VWS V14.01,2014-10-21 07:12:00,
2014-10-21 10:17:00,66.0,50.8,29.94,SW,223,3.1,4.0,58,0.00,,---,0.00,VWS V14.01,2014-10-21 07:17:00,
2014-10-21 10:22:00,66.2,50.5,29.94,SW,230,0.0,0.0,57,0.00,,---,0.00,VWS V14.01,2014-10-21 07:22:00,
2014-10-21 10:28:00,66.6,50.4,29.94,SW,230,0.0,0.0,56,0.00,,---,0.00,VWS V14.01,2014-10-21 07:28:00,
2014-10-21 10:34:00,66.7,50.1,29.94,West,280,3.6,4.5,55,0.00,,---,0.00,VWS V14.01,2014-10-21 07:34:00,
2014-10-21 10:39:00,66.9,49.8,29.94,West,270,0.0,0.0,54,0.00,,---,0.00,VWS V14.01,2014-10-21 07:39:00,
2014-10-21 10:45:00,67.1,49.4,29.94,West,260,0.0,0.0,53,0.00,,---,0.00,VWS V14.01,2014-10-21 07:45:00,
2014-10-21 10:50:00,66.9,47.7,29.94,West,276,5.4,5.8,50,0.00,,---,0.00,VWS V14.01,2014-10-21 07:50:00,
2014-10-21 10:55:00,66.9,46.0,29.94,SW,215,4.5,4.5,47,0.00,,---,0.00,VWS V14.01,2014-10-21 07:55:00,
2014-10-21 11:01:00,67.1,46.8,29.94,WSW,244,0.0,0.0,48,0.00,,---,0.00,VWS V14.01,2014-10-21 08:01:00,
2014-10-21 11:06:00,67.3,46.9,29.94,WSW,244,0.0,0.0,48,0.00,,---,0.00,VWS V14.01,2014-10-21 08:06:00,
2014-10-21 11:11:00,67.5,47.1,29.94,South,190,0.0,3.1,48,0.00,,---,0.00,VWS V14.01,2014-10-21 08:11:00,
2014-10-21 11:16:00,67.8,46.9,29.94,SSW,203,3.1,3.6,47,0.00,,---,0.00,VWS V14.01,2014-10-21 08:16:00,
2014-10-21 11:22:00,68.2,46.6,29.94,South,188,0.0,3.6,46,0.00,,---,0.00,VWS V14.01,2014-10-21 08:22:00,
2014-10-21 11:27:00,68.0,46.5,29.94,WSW,247,0.0,0.0,46,0.00,,---,0.00,VWS V14.01,2014-10-21 08:27:00,
2014-10-21 11:32:00,68.2,46.0,29.94,WSW,242,5.4,6.3,45,0.00,,---,0.00,VWS V14.01,2014-10-21 08:32:00,
2014-10-21 11:37:00,68.2,46.0,29.94,West,260,4.0,6.3,45,0.00,,---,0.00,VWS V14.01,2014-10-21 08:37:00,
2014-10-21 11:43:00,68.0,45.9,29.94,SSW,204,2.2,4.0,45,0.00,,---,0.00,VWS V14.01,2014-10-21 08:43:00,
2014-10-21 11:48:00,68.2,46.0,29.94,WSW,238,5.8,5.8,45,0.00,,---,0.00,VWS V14.01,2014-10-21 08:48:00,
2014-10-21 11:53:00,68.5,47.0,29.94,SSE,155,3.1,4.9,46,0.00,,---,0.00,VWS V14.01,2014-10-21 08:53:00,
2014-10-21 11:59:00,68.5,47.0,29.94,SSW,206,3.1,8.1,46,0.00,,---,0.00,VWS V14.01,2014-10-21 08:59:00,
2014-10-21 12:04:00,68.4,47.4,29.94,SW,214,2.7,3.1,47,0.00,,---,0.00,VWS V14.01,2014-10-21 09:04:00,
2014-10-21 12:09:00,68.5,47.5,29.94,South,188,3.1,6.3,47,0.00,,---,0.00,VWS V14.01,2014-10-21 09:09:00,
2014-10-21 12:14:00,68.7,47.7,29.94,SW,227,3.1,4.9,47,0.00,,---,0.00,VWS V14.01,2014-10-21 09:14:00,
2014-10-21 12:20:00,68.7,47.7,29.94,WNW,289,4.0,6.3,47,0.00,,---,0.00,VWS V14.01,2014-10-21 09:20:00,
2014-10-21 12:25:00,68.9,47.3,29.94,SSW,202,7.6,7.6,46,0.00,,---,0.00,VWS V14.01,2014-10-21 09:25:00,
2014-10-21 12:30:00,68.7,47.1,29.94,SW,226,6.3,8.3,46,0.00,,---,0.00,VWS V14.01,2014-10-21 09:30:00,
2014-10-21 12:35:00,68.5,47.0,29.94,SW,226,0.0,0.0,46,0.00,,---,0.00,VWS V14.01,2014-10-21 09:35:00,
2014-10-21 12:41:00,68.7,47.7,29.94,West,263,5.4,5.4,47,0.00,,---,0.00,VWS V14.01,2014-10-21 09:41:00,
2014-10-21 12:46:00,68.9,47.9,29.94,West,268,5.8,5.8,47,0.00,,---,0.00,VWS V14.01,2014-10-21 09:46:00,
2014-10-21 12:51:00,68.9,48.4,29.94,SSW,204,3.6,8.1,48,0.00,,---,0.00,VWS V14.01,2014-10-21 09:51:00,
2014-10-21 12:56:00,69.3,49.3,29.94,SW,224,7.2,7.6,49,0.00,,---,0.00,VWS V14.01,2014-10-21 09:56:00,
2014-10-21 13:02:00,69.3,49.3,29.94,WSW,238,6.3,6.3,49,0.00,,---,0.00,VWS V14.01,2014-10-21 10:02:00,
2014-10-21 13:07:00,69.4,49.5,29.91,SW,229,3.1,3.1,49,0.00,,---,0.00,VWS V14.01,2014-10-21 10:07:00,
2014-10-21 13:13:00,69.6,50.2,29.91,SSW,210,6.3,8.7,50,0.00,,---,0.00,VWS V14.01,2014-10-21 10:13:00,
2014-10-21 13:19:00,69.6,50.2,29.91,West,260,6.3,6.3,50,0.00,,---,0.00,VWS V14.01,2014-10-21 10:19:00,
2014-10-21 13:24:00,69.3,49.8,29.91,West,263,4.0,4.9,50,0.00,,---,0.00,VWS V14.01,2014-10-21 10:24:00,
2014-10-21 13:29:00,69.4,50.0,29.91,SW,231,0.0,3.1,50,0.00,,---,0.00,VWS V14.01,2014-10-21 10:29:00,
2014-10-21 13:35:00,70.0,51.0,29.91,West,270,0.0,4.0,51,0.00,,---,0.00,VWS V14.01,2014-10-21 10:35:00,
2014-10-21 13:40:00,70.3,50.8,29.91,South,169,5.4,6.3,50,0.00,,---,0.00,VWS V14.01,2014-10-21 10:40:00,
2014-10-21 13:46:00,70.3,50.8,29.91,SW,225,5.8,7.6,50,0.00,,---,0.00,VWS V14.01,2014-10-21 10:46:00,
2014-10-21 13:51:00,70.3,50.8,29.91,South,191,0.0,3.6,50,0.00,,---,0.00,VWS V14.01,2014-10-21 10:51:00,
2014-10-21 13:56:00,70.5,51.0,29.91,SSW,198,5.4,6.3,50,0.00,,---,0.00,VWS V14.01,2014-10-21 10:56:00,
2014-10-21 14:02:00,70.3,50.8,29.91,SW,218,3.1,4.9,50,0.00,,---,0.00,VWS V14.01,2014-10-21 11:02:00,
2014-10-21 14:07:00,70.5,51.0,29.88,SW,218,7.6,8.1,50,0.00,,---,0.00,VWS V14.01,2014-10-21 11:07:00,
2014-10-21 14:13:00,70.5,51.0,29.88,SW,232,4.0,4.0,50,0.00,,---,0.00,VWS V14.01,2014-10-21 11:13:00,
2014-10-21 14:19:00,70.7,51.2,29.88,WSW,240,3.6,5.8,50,0.00,,---,0.00,VWS V14.01,2014-10-21 11:19:00,
2014-10-21 14:24:00,70.7,51.2,29.88,WSW,241,3.1,5.8,50,0.00,,---,0.00,VWS V14.01,2014-10-21 11:24:00,
2014-10-21 14:29:00,71.1,51.5,29.88,SSW,204,6.3,6.3,50,0.00,,---,0.00,VWS V14.01,2014-10-21 11:29:00,
2014-10-21 14:35:00,71.1,51.0,29.88,SW,217,5.8,5.8,49,0.00,,---,0.00,VWS V14.01,2014-10-21 11:35:00,
2014-10-21 14:40:00,70.9,50.8,29.88,SW,232,6.3,6.3,49,0.00,,---,0.00,VWS V14.01,2014-10-21 11:40:00,
2014-10-21 14:45:00,71.2,51.1,29.88,South,175,0.0,5.8,49,0.00,,---,0.00,VWS V14.01,2014-10-21 11:45:00,
2014-10-21 14:50:00,71.4,50.7,29.88,SW,231,6.3,7.6,48,0.00,,---,0.00,VWS V14.01,2014-10-21 11:50:00,
2014-10-21 14:56:00,71.2,50.6,29.88,WSW,245,5.8,5.8,48,0.00,,---,0.00,VWS V14.01,2014-10-21 11:56:00,
2014-10-21 15:01:00,71.1,50.4,29.88,WSW,237,2.2,5.8,48,0.00,,---,0.00,VWS V14.01,2014-10-21 12:01:00,
2014-10-21 15:06:00,71.4,50.7,29.88,West,272,4.0,7.6,48,0.00,,---,0.00,VWS V14.01,2014-10-21 12:06:00,
2014-10-21 15:11:00,71.6,49.8,29.88,WSW,251,5.4,6.3,46,0.00,,---,0.00,VWS V14.01,2014-10-21 12:11:00,
2014-10-21 15:17:00,71.6,49.8,29.88,WSW,251,4.0,4.9,46,0.00,,---,0.00,VWS V14.01,2014-10-21 12:17:00,
2014-10-21 15:22:00,71.4,49.0,29.85,SSE,167,2.7,6.3,45,0.00,,---,0.00,VWS V14.01,2014-10-21 12:22:00,
2014-10-21 15:27:00,71.8,49.3,29.85,SSW,210,3.6,3.6,45,0.00,,---,0.00,VWS V14.01,2014-10-21 12:27:00,
2014-10-21 15:32:00,72.0,48.9,29.85,WNW,284,4.0,8.1,44,0.00,,---,0.00,VWS V14.01,2014-10-21 12:32:00,
2014-10-21 15:37:00,72.0,48.9,29.85,SW,218,4.0,4.9,44,0.00,,---,0.00,VWS V14.01,2014-10-21 12:37:00,
2014-10-21 15:42:00,72.0,48.3,29.85,SSW,209,6.3,6.3,43,0.00,,---,0.00,VWS V14.01,2014-10-21 12:42:00,
2014-10-21 15:48:00,71.6,47.9,29.85,SW,219,5.8,6.7,43,0.00,,---,0.00,VWS V14.01,2014-10-21 12:48:00,
2014-10-21 15:54:00,71.6,47.9,29.85,WSW,240,5.8,7.6,43,0.00,,---,0.00,VWS V14.01,2014-10-21 12:54:00,
2014-10-21 15:59:00,71.6,47.9,29.85,SW,229,5.4,6.3,43,0.00,,---,0.00,VWS V14.01,2014-10-21 12:59:00,
2014-10-21 16:04:00,71.6,47.9,29.85,SW,227,4.0,8.7,43,0.00,,---,0.00,VWS V14.01,2014-10-21 13:04:00,
2014-10-21 16:09:00,71.4,48.4,29.85,SSW,208,7.6,7.6,44,0.00,,---,0.00,VWS V14.01,2014-10-21 13:09:00,
2014-10-21 16:15:00,71.4,48.4,29.85,SW,228,2.7,4.9,44,0.00,,---,0.00,VWS V14.01,2014-10-21 13:15:00,
2014-10-21 16:20:00,71.4,48.4,29.85,SSW,208,5.8,8.3,44,0.00,,---,0.00,VWS V14.01,2014-10-21 13:20:00,
2014-10-21 16:26:00,71.4,48.4,29.85,SSW,195,6.3,6.3,44,0.00,,---,0.00,VWS V14.01,2014-10-21 13:26:00,
2014-10-21 16:32:00,71.6,47.9,29.85,SW,218,7.6,10.1,43,0.00,,---,0.00,VWS V14.01,2014-10-21 13:32:00,
2014-10-21 16:37:00,71.4,48.4,29.85,SW,231,3.6,8.1,44,0.00,,---,0.00,VWS V14.01,2014-10-21 13:37:00,
2014-10-21 16:43:00,71.4,47.8,29.85,SW,230,2.7,8.3,43,0.00,,---,0.00,VWS V14.01,2014-10-21 13:43:00,
2014-10-21 16:48:00,71.4,47.8,29.85,SSW,204,5.8,5.8,43,0.00,,---,0.00,VWS V14.01,2014-10-21 13:48:00,
2014-10-21 16:54:00,71.4,47.2,29.85,WSW,254,8.7,8.7,42,0.00,,---,0.00,VWS V14.01,2014-10-21 13:54:00,
2014-10-21 16:59:00,71.2,46.4,29.85,SSW,204,0.0,7.6,41,0.00,,---,0.00,VWS V14.01,2014-10-21 13:59:00,
2014-10-21 17:05:00,71.2,46.4,29.85,SSW,212,5.4,5.8,41,0.00,,---,0.00,VWS V14.01,2014-10-21 14:05:00,
2014-10-21 17:11:00,71.1,45.5,29.85,SSW,205,5.8,7.6,40,0.00,,---,0.00,VWS V14.01,2014-10-21 14:11:00,
2014-10-21 17:16:00,70.9,46.0,29.85,SW,218,3.6,4.9,41,0.00,,---,0.00,VWS V14.01,2014-10-21 14:16:00,
2014-10-21 17:21:00,70.9,47.3,29.85,SW,236,5.4,5.8,43,0.00,,---,0.00,VWS V14.01,2014-10-21 14:21:00,
2014-10-21 17:26:00,70.5,47.6,29.85,SW,218,4.0,4.0,44,0.00,,---,0.00,VWS V14.01,2014-10-21 14:26:00,
2014-10-21 17:32:00,70.5,47.6,29.85,WSW,241,4.5,5.8,44,0.00,,---,0.00,VWS V14.01,2014-10-21 14:32:00,
2014-10-21 17:38:00,70.3,47.4,29.85,SW,224,4.9,5.4,44,0.00,,---,0.00,VWS V14.01,2014-10-21 14:38:00,
2014-10-21 17:43:00,70.2,47.2,29.85,SW,216,2.7,2.7,44,0.00,,---,0.00,VWS V14.01,2014-10-21 14:43:00,
2014-10-21 17:49:00,70.2,47.8,29.85,SW,231,2.7,5.4,45,0.00,,---,0.00,VWS V14.01,2014-10-21 14:49:00,
2014-10-21 17:54:00,69.8,48.1,29.85,West,267,4.9,5.8,46,0.00,,---,0.00,VWS V14.01,2014-10-21 14:54:00,
2014-10-21 17:59:00,69.6,48.5,29.85,SW,221,5.4,5.4,47,0.00,,---,0.00,VWS V14.01,2014-10-21 14:59:00,
2014-10-21 18:04:00,69.4,49.5,29.85,SW,232,3.6,7.2,49,0.00,,---,0.00,VWS V14.01,2014-10-21 15:04:00,
2014-10-21 18:10:00,68.9,50.0,29.85,SSW,209,2.7,5.4,51,0.00,,---,0.00,VWS V14.01,2014-10-21 15:10:00,
2014-10-21 18:15:00,68.5,50.8,29.85,SW,216,6.7,6.7,53,0.00,,---,0.00,VWS V14.01,2014-10-21 15:15:00,
2014-10-21 18:20:00,68.2,50.9,29.85,SSW,200,3.1,5.8,54,0.00,,---,0.00,VWS V14.01,2014-10-21 15:20:00,
2014-10-21 18:25:00,68.0,50.8,29.85,SW,231,3.1,3.6,54,0.00,,---,0.00,VWS V14.01,2014-10-21 15:25:00,
2014-10-21 18:31:00,67.6,50.9,29.85,WSW,241,0.0,0.0,55,0.00,,---,0.00,VWS V14.01,2014-10-21 15:31:00,
2014-10-21 18:37:00,67.3,50.6,29.85,SW,236,2.7,3.6,55,0.00,,---,0.00,VWS V14.01,2014-10-21 15:37:00,
2014-10-21 18:42:00,66.9,50.7,29.85,SW,232,2.2,4.9,56,0.00,,---,0.00,VWS V14.01,2014-10-21 15:42:00,
2014-10-21 18:48:00,66.6,50.4,29.85,SW,223,5.4,5.8,56,0.00,,---,0.00,VWS V14.01,2014-10-21 15:48:00,
2014-10-21 18:53:00,66.4,51.2,29.85,SSW,210,2.7,5.4,58,0.00,,---,0.00,VWS V14.01,2014-10-21 15:53:00,
2014-10-21 18:59:00,66.2,51.5,29.85,WSW,240,3.1,5.8,59,0.00,,---,0.00,VWS V14.01,2014-10-21 15:59:00,
2014-10-21 19:04:00,66.0,51.8,29.85,SW,231,6.3,6.3,60,0.00,,---,0.00,VWS V14.01,2014-10-21 16:04:00,
2014-10-21 19:09:00,66.0,52.6,29.85,SW,214,5.8,6.3,62,0.00,,---,0.00,VWS V14.01,2014-10-21 16:09:00,
2014-10-21 19:14:00,65.8,52.5,29.85,SW,225,5.8,6.3,62,0.00,,---,0.00,VWS V14.01,2014-10-21 16:14:00,
2014-10-21 19:20:00,65.7,52.3,29.85,SW,216,3.1,4.0,62,0.00,,---,0.00,VWS V14.01,2014-10-21 16:20:00,
2014-10-21 19:25:00,65.5,52.6,29.85,SW,217,3.1,7.6,63,0.00,,---,0.00,VWS V14.01,2014-10-21 16:25:00,
2014-10-21 19:30:00,65.5,53.4,29.85,SSW,202,5.8,7.6,65,0.00,,---,0.00,VWS V14.01,2014-10-21 16:30:00,
2014-10-21 19:35:00,65.3,53.2,29.85,SSW,192,3.1,6.3,65,0.00,,---,0.00,VWS V14.01,2014-10-21 16:35:00,
2014-10-21 19:41:00,65.1,53.5,29.85,SW,232,0.0,2.7,66,0.00,,---,0.00,VWS V14.01,2014-10-21 16:41:00,
2014-10-21 19:47:00,64.9,53.3,29.85,SW,232,0.0,0.0,66,0.00,,---,0.00,VWS V14.01,2014-10-21 16:47:00,
2014-10-21 19:52:00,64.8,53.2,29.85,SW,232,0.0,0.0,66,0.00,,---,0.00,VWS V14.01,2014-10-21 16:52:00,
2014-10-21 19:58:00,64.8,53.2,29.85,SW,233,0.0,0.0,66,0.00,,---,0.00,VWS V14.01,2014-10-21 16:58:00,
2014-10-21 20:04:00,64.4,52.8,29.85,South,175,0.0,0.0,66,0.00,,---,0.00,VWS V14.01,2014-10-21 17:04:00,
2014-10-21 20:09:00,64.2,52.6,29.85,SSW,203,0.0,0.0,66,0.00,,---,0.00,VWS V14.01,2014-10-21 17:09:00,
2014-10-21 20:15:00,64.2,53.0,29.85,SW,232,0.0,3.1,67,0.00,,---,0.00,VWS V14.01,2014-10-21 17:15:00,
2014-10-21 20:20:00,64.0,52.9,29.85,SW,232,0.0,0.0,67,0.00,,---,0.00,VWS V14.01,2014-10-21 17:20:00,
2014-10-21 20:26:00,63.9,52.7,29.85,South,183,0.0,0.0,67,0.00,,---,0.00,VWS V14.01,2014-10-21 17:26:00,
2014-10-21 20:31:00,63.5,52.4,29.85,SSE,163,0.0,0.0,67,0.00,,---,0.00,VWS V14.01,2014-10-21 17:31:00,
2014-10-21 20:37:00,63.5,52.8,29.85,SSE,162,0.0,0.0,68,0.00,,---,0.00,VWS V14.01,2014-10-21 17:37:00,
2014-10-21 20:43:00,63.5,52.8,29.85,SSE,163,0.0,0.0,68,0.00,,---,0.00,VWS V14.01,2014-10-21 17:43:00,
2014-10-21 20:48:00,63.3,52.6,29.85,SSE,163,0.0,0.0,68,0.00,,---,0.00,VWS V14.01,2014-10-21 17:48:00,
2014-10-21 20:53:00,63.1,52.4,29.85,SSE,162,0.0,0.0,68,0.00,,---,0.00,VWS V14.01,2014-10-21 17:53:00,
2014-10-21 20:58:00,63.0,53.0,29.85,SSE,163,0.0,0.0,70,0.00,,---,0.00,VWS V14.01,2014-10-21 17:58:00,
2014-10-21 21:04:00,63.0,53.0,29.85,SSE,163,0.0,0.0,70,0.00,,---,0.00,VWS V14.01,2014-10-21 18:04:00,
2014-10-21 21:09:00,62.6,52.3,29.85,SSE,163,0.0,0.0,69,0.00,,---,0.00,VWS V14.01,2014-10-21 18:09:00,
2014-10-21 21:14:00,62.6,52.7,29.85,SSE,163,0.0,0.0,70,0.00,,---,0.00,VWS V14.01,2014-10-21 18:14:00,
2014-10-21 21:19:00,62.8,54.0,29.85,NE,55,0.0,0.0,73,0.00,,---,0.00,VWS V14.01,2014-10-21 18:19:00,
2014-10-21 21:25:00,63.0,54.2,29.85,NE,55,0.0,0.0,73,0.00,,---,0.00,VWS V14.01,2014-10-21 18:25:00,
2014-10-21 21:30:00,62.8,54.0,29.85,NE,55,0.0,0.0,73,0.00,,---,0.00,VWS V14.01,2014-10-21 18:30:00,
2014-10-21 21:35:00,62.8,54.0,29.85,South,175,0.0,0.0,73,0.00,,---,0.00,VWS V14.01,2014-10-21 18:35:00,
2014-10-21 21:40:00,62.6,54.2,29.85,East,90,3.1,3.1,74,0.00,,---,0.00,VWS V14.01,2014-10-21 18:40:00,
2014-10-21 21:46:00,62.6,53.8,29.85,SSW,198,0.0,0.0,73,0.00,,---,0.00,VWS V14.01,2014-10-21 18:46:00,
2014-10-21 21:51:00,62.4,54.0,29.85,ESE,109,0.0,0.0,74,0.00,,---,0.00,VWS V14.01,2014-10-21 18:51:00,